地図

経路データ

SID SEASON NUMBER BASIN SUBBASIN NAME ISO_TIME NATURE LAT LON WMO_WIND WMO_PRES WMO_AGENCY TRACK_TYPE DIST2LAND LANDFALL IFLAG USA_AGENCY USA_ATCF_ID USA_LAT USA_LON USA_RECORD USA_STATUS USA_WIND USA_PRES USA_SSHS USA_R34_NE USA_R34_SE USA_R34_SW USA_R34_NW USA_R50_NE USA_R50_SE USA_R50_SW USA_R50_NW USA_R64_NE USA_R64_SE USA_R64_SW USA_R64_NW USA_POCI USA_ROCI USA_RMW USA_EYE TOKYO_LAT TOKYO_LON TOKYO_GRADE TOKYO_WIND TOKYO_PRES TOKYO_R50_DIR TOKYO_R50_LONG TOKYO_R50_SHORT TOKYO_R30_DIR TOKYO_R30_LONG TOKYO_R30_SHORT TOKYO_LAND CMA_LAT CMA_LON CMA_CAT CMA_WIND CMA_PRES HKO_LAT HKO_LON HKO_CAT HKO_WIND HKO_PRES NEWDELHI_LAT NEWDELHI_LON NEWDELHI_GRADE NEWDELHI_WIND NEWDELHI_PRES NEWDELHI_CI NEWDELHI_DP NEWDELHI_POCI REUNION_LAT REUNION_LON REUNION_TYPE REUNION_WIND REUNION_PRES REUNION_TNUM REUNION_CI REUNION_RMW REUNION_R34_NE REUNION_R34_SE REUNION_R34_SW REUNION_R34_NW REUNION_R50_NE REUNION_R50_SE REUNION_R50_SW REUNION_R50_NW REUNION_R64_NE REUNION_R64_SE REUNION_R64_SW REUNION_R64_NW BOM_LAT BOM_LON BOM_TYPE BOM_WIND BOM_PRES BOM_TNUM BOM_CI BOM_RMW BOM_R34_NE BOM_R34_SE BOM_R34_SW BOM_R34_NW BOM_R50_NE BOM_R50_SE BOM_R50_SW BOM_R50_NW BOM_R64_NE BOM_R64_SE BOM_R64_SW BOM_R64_NW BOM_ROCI BOM_POCI BOM_EYE BOM_POS_METHOD BOM_PRES_METHOD NADI_LAT NADI_LON NADI_CAT NADI_WIND NADI_PRES WELLINGTON_LAT WELLINGTON_LON WELLINGTON_WIND WELLINGTON_PRES DS824_LAT DS824_LON DS824_STAGE DS824_WIND DS824_PRES TD9636_LAT TD9636_LON TD9636_STAGE TD9636_WIND TD9636_PRES TD9635_LAT TD9635_LON TD9635_WIND TD9635_PRES TD9635_ROCI NEUMANN_LAT NEUMANN_LON NEUMANN_CLASS NEUMANN_WIND NEUMANN_PRES MLC_LAT MLC_LON MLC_CLASS MLC_WIND MLC_PRES USA_GUST BOM_GUST BOM_GUST_PER REUNION_GUST REUNION_GUST_PER USA_SEAHGT USA_SEARAD_NE USA_SEARAD_SE USA_SEARAD_SW USA_SEARAD_NW STORM_SPEED STORM_DIR
1945338N08087 1945 84 NI BB NOT_NAMED 1945-12-03 18:00:00 TS 7.60000 86.5000 main 512 491 O________O____ jtwc_io IO141945 7.60000 86.5000 -1 7.60000 86.5000 TC 6 303
1945338N08087 1945 84 NI BB NOT_NAMED 1945-12-03 21:00:00 TS 7.75001 86.2625 main 493 463 P________P____ IO141945 7.75001 86.2625 -1 7.75001 86.2625 TC 6 301
1945338N08087 1945 84 NI BB NOT_NAMED 1945-12-04 00:00:00 TS 7.90000 86.0000 main 463 432 O________O____ jtwc_io IO141945 7.90000 86.0000 -1 7.90000 86.0000 TC 25 6 299
1945338N08087 1945 84 NI BB NOT_NAMED 1945-12-04 03:00:00 TS 8.05556 85.7000 main 433 402 P________PO___ IO141945 8.05001 85.7000 -1 8.05001 85.7000 TC 25 8.10000 85.7000 1 7 297
1945338N08087 1945 84 NI BB NOT_NAMED 1945-12-04 06:00:00 TS 8.20222 85.4031 main 402 382 O________OP___ jtwc_io IO141945 8.20000 85.4000 -1 8.20000 85.4000 TC 25 8.21110 85.4157 1 6 298
1945338N08087 1945 84 NI BB NOT_NAMED 1945-12-04 09:00:00 TS 8.34389 85.1404 main 372 356 P________PP___ IO141945 8.34997 85.1425 -1 8.34997 85.1425 TC 25 8.32768 85.1350 1 6 299
1945338N08087 1945 84 NI BB NOT_NAMED 1945-12-04 12:00:00 TS 8.48514 84.8873 main 356 328 O________OP___ jtwc_io IO141945 8.50000 84.9000 -1 8.50000 84.9000 TC 25 8.45541 84.8619 1 6 300
1945338N08087 1945 84 NI BB NOT_NAMED 1945-12-04 15:00:00 TS 8.63332 84.6333 main 328 316 P________PO___ IO141945 8.64998 84.6500 -1 8.64998 84.6500 TC 25 8.60000 84.6000 1 6 301
1945338N08087 1945 84 NI BB NOT_NAMED 1945-12-04 18:00:00 TS 8.78769 84.3842 main 316 292 O________OP___ jtwc_io IO141945 8.80000 84.4000 -1 8.80000 84.4000 TC 25 8.76307 84.3526 1 6 303
1945338N08087 1945 84 NI BB NOT_NAMED 1945-12-04 21:00:00 TS 8.94831 84.1350 main 292 281 P________PP___ IO141945 8.95750 84.1425 -1 8.95750 84.1425 TC 25 8.92994 84.1201 1 6 303
1945338N08087 1945 84 NI BB NOT_NAMED 1945-12-05 00:00:00 TS 9.09395 83.9009 main 281 267 O________OP___ jtwc_io IO141945 9.10000 83.9000 -1 9.10000 83.9000 TC 25 9.08184 83.9026 1 5 301
1945338N08087 1945 84 NI BB NOT_NAMED 1945-12-05 03:00:00 TS 9.21499 83.6900 main 267 251 P________PO___ IO141945 9.22249 83.6850 -1 9.22249 83.6850 TC 25 9.20000 83.7000 1 4 296
1945338N08087 1945 84 NI BB NOT_NAMED 1945-12-05 06:00:00 TS 9.28559 83.5062 main 251 241 O________OP___ jtwc_io IO141945 9.30000 83.5000 -1 9.30000 83.5000 TC 25 9.25678 83.5186 1 3 285
1945338N08087 1945 84 NI BB NOT_NAMED 1945-12-05 09:00:00 TS 9.30327 83.3499 main 231 222 P________PP___ IO141945 9.31497 83.3500 -1 9.31497 83.3500 TC 25 9.27987 83.3498 1 3 272
1945338N08087 1945 84 NI BB NOT_NAMED 1945-12-05 12:00:00 TS 9.29601 83.1937 main 222 202 O________OP___ jtwc_io IO141945 9.30000 83.2000 -1 9.30000 83.2000 TC 25 9.28803 83.1811 1 3 269
1945338N08087 1945 84 NI BB NOT_NAMED 1945-12-05 15:00:00 TS 9.29499 83.0100 main 202 184 P________PO___ IO141945 9.29249 83.0150 -1 9.29249 83.0150 TC 25 9.30000 83.0000 1 4 272
1945338N08087 1945 84 NI BB NOT_NAMED 1945-12-05 18:00:00 TS 9.31217 82.7988 main 184 166 O________OP___ jtwc_io IO141945 9.30000 82.8000 -1 9.30000 82.8000 TC 25 9.33043 82.7970 1 4 278
1945338N08087 1945 84 NI BB NOT_NAMED 1945-12-05 21:00:00 TS 9.35618 82.5651 main 172 144 P________PP___ IO141945 9.34004 82.5575 -1 9.34004 82.5575 TC 25 9.37769 82.5752 1 5 283
1945338N08087 1945 84 NI BB NOT_NAMED 1945-12-06 00:00:00 TS 9.41805 82.3204 main 144 133 O________OP___ jtwc_io IO141945 9.40000 82.3000 -1 9.40000 82.3000 TC 25 9.43610 82.3408 1 5 287
1945338N08087 1945 84 NI BB NOT_NAMED 1945-12-06 03:00:00 NR 9.50000 82.1000 main 133 __________O___ IO141945 -1 TC 9.50000 82.1000 1 5 291

IBTrACS Databaseについて

本データベースは、米国NOAAが公開する1842年以降の世界の熱帯低気圧のベストトラックデータアーカイブInternational Best Track Archive for Climate Stewardship (IBTrACS)を、ウェブで閲覧しやすい形式に変換したものです。

最終更新日:2021-10-08